Station Historical Data
Daily Summary for April 29, 2017 Units:  English    Metric   Both
« Previous Day
Next Day »
Daily Weekly Monthly Yearly Custom
  High: Low: Average:
Temperature: 85.7 °F 67.8 °F 76.5 °F
Dew Point: 69.1 °F 64.4 °F 66.5 °F
Humidity: 91% 55% 73%
Wind Speed: 2.0mph 0.0mph 0.1mph
Wind Gust: 7.0mph - -
Wind- - NW
Pressure: 30.14 in 30.03 in -
Precipitation: 0.00 in    
Historical Graphs
 
 
Tabular Data for April 29, 2017
Time Temperature Dew Point Pressure Wind Wind Speed Wind Gust Humidity Rainfall Rate (Hourly) Conditions
00:00 71.1 °F 65.4 °F 30.08 in Calm     82% 0.00 in SCT
00:15 71.1 °F 65.7 °F 30.08 in Calm     83% 0.00 in SCT
00:30 70.9 °F 65.5 °F 30.08 in Calm     83% 0.00 in SCT
00:45 70.5 °F 65.5 °F 30.08 in Calm     84% 0.00 in SCT
01:00 70.1 °F 65.4 °F 30.08 in Calm     85% 0.00 in SCT
01:15 69.8 °F 65.4 °F 30.08 in Calm     86% 0.00 in SCT
01:30 69.4 °F 65.0 °F 30.08 in Calm     86% 0.00 in SCT
01:45 69.0 °F 65.0 °F 30.08 in Calm     87% 0.00 in SCT
02:00 68.7 °F 64.7 °F 30.08 in Calm     87% 0.00 in SCT
02:15 68.4 °F 64.7 °F 30.07 in Calm     88% 0.00 in SCT
02:30 68.1 °F 64.4 °F 30.07 in Calm     88% 0.00 in SCT
02:45 68.0 °F 64.6 °F 30.06 in Calm     89% 0.00 in SCT
03:00 68.0 °F 64.6 °F 30.06 in Calm     89% 0.00 in SCT
03:15 68.5 °F 65.1 °F 30.05 in Calm     89% 0.00 in SCT
03:30 69.2 °F 65.5 °F 30.04 in Calm     88% 0.00 in SCT
03:45 69.0 °F 64.6 °F 30.03 in Calm     86% 0.00 in SCT
04:00 69.2 °F 64.8 °F 30.03 in Calm     86% 0.00 in SCT
04:15 69.2 °F 64.8 °F 30.03 in Calm     86% 0.00 in SCT
04:30 69.2 °F 64.8 °F 30.04 in Calm     86% 0.00 in SCT
04:45 69.2 °F 64.8 °F 30.03 in Calm     86% 0.00 in SCT
05:00 69.2 °F 64.8 °F 30.04 in Calm     86% 0.00 in SCT
05:15 69.2 °F 64.8 °F 30.05 in Calm     86% 0.00 in SCT
05:30 69.2 °F 64.8 °F 30.06 in Calm     86% 0.00 in SCT
05:45 69.2 °F 64.8 °F 30.07 in Calm     86% 0.00 in SCT
06:00 69.2 °F 64.8 °F 30.08 in Calm     86% 0.00 in SCT
06:15 69.2 °F 64.8 °F 30.09 in Calm     86% 0.00 in SCT
06:30 69.2 °F 64.8 °F 30.09 in Calm     86% 0.00 in SCT
06:45 69.2 °F 64.8 °F 30.10 in Calm     86% 0.00 in SCT
07:00 69.2 °F 64.8 °F 30.11 in Calm     86% 0.00 in SCT
07:15 69.2 °F 64.8 °F 30.12 in Calm     86% 0.00 in SCT
07:30 69.2 °F 64.8 °F 30.13 in Calm     86% 0.00 in SCT
07:45 69.2 °F 64.8 °F 30.13 in Calm     86% 0.00 in SCT
08:00 67.8 °F 65.0 °F 30.13 in Calm     91% 0.00 in SCT
08:15 68.7 °F 65.6 °F 30.13 in Calm   1.0 mph 90% 0.00 in SCT
08:30 69.8 °F 66.4 °F 30.14 in Calm   1.0 mph 89% 0.00 in SCT
08:45 70.7 °F 66.6 °F 30.13 in Calm   2.0 mph 87% 0.00 in SCT
09:00 71.1 °F 66.7 °F 30.14 in Calm   1.0 mph 86% 0.00 in SCT
09:15 71.8 °F 67.0 °F 30.14 in Calm   1.0 mph 85% 0.00 in SCT
09:30 72.6 °F 67.5 °F 30.14 in Calm   1.0 mph 84% 0.00 in SCT
09:45 73.5 °F 67.6 °F 30.14 in Calm   1.0 mph 82% 0.00 in SCT
10:00 75.2 °F 68.3 °F 30.14 in Calm   1.0 mph 79% 0.00 in SCT
10:15 77.2 °F 68.3 °F 30.13 in Calm   1.0 mph 74% 0.00 in SCT
10:30 78.7 °F 66.8 °F 30.14 in Calm   2.0 mph 67% 0.00 in SCT
10:45 79.7 °F 66.4 °F 30.14 in Calm   1.0 mph 64% 0.00 in SCT
11:00 79.9 °F 67.1 °F 30.14 in Calm   2.0 mph 65% 0.00 in SCT
11:15 79.5 °F 67.1 °F 30.14 in Calm   2.0 mph 66% 0.00 in SCT
11:30 80.6 °F 67.7 °F 30.14 in Calm   2.0 mph 65% 0.00 in SCT
11:45 81.6 °F 68.7 °F 30.14 in Calm   1.0 mph 65% 0.00 in SCT
12:00 82.7 °F 68.8 °F 30.14 in Calm   3.0 mph 63% 0.00 in SCT
12:15 83.6 °F 68.2 °F 30.13 in Calm   3.0 mph 60% 0.00 in SCT
12:30 84.7 °F 68.3 °F 30.13 in Calm   2.0 mph 58% 0.00 in SCT
12:45 85.2 °F 67.7 °F 30.13 in Calm   2.0 mph 56% 0.00 in SCT
13:00 84.8 °F 66.9 °F 30.13 in Calm   1.0 mph 55% 0.00 in SCT
13:15 84.7 °F 68.3 °F 30.12 in Calm   2.0 mph 58% 0.00 in SCT
13:30 85.5 °F 67.5 °F 30.11 in NW 1.0 mph 2.0 mph 55% 0.00 in SCT
13:45 85.7 °F 68.2 °F 30.11 in Calm   1.0 mph 56% 0.00 in SCT
14:00 85.0 °F 68.1 °F 30.10 in Calm   6.0 mph 57% 0.00 in SCT
14:15 85.4 °F 68.5 °F 30.11 in Calm   3.0 mph 57% 0.00 in SCT
14:30 84.5 °F 68.1 °F 30.11 in Calm   1.0 mph 58% 0.00 in SCT
14:45 84.7 °F 67.8 °F 30.10 in NW 1.0 mph 3.0 mph 57% 0.00 in SCT
15:00 84.1 °F 68.7 °F 30.10 in Calm   3.0 mph 60% 0.00 in SCT
15:15 85.0 °F 69.1 °F 30.09 in Calm   2.0 mph 59% 0.00 in SCT
15:30 84.6 °F 68.7 °F 30.08 in NW 1.0 mph 2.0 mph 59% 0.00 in SCT
15:45 84.6 °F 68.7 °F 30.07 in Calm   2.0 mph 59% 0.00 in SCT
16:00 85.3 °F 68.3 °F 30.07 in Calm   2.0 mph 57% 0.00 in SCT
16:15 85.5 °F 67.5 °F 30.07 in NW 2.0 mph 6.0 mph 55% 0.00 in SCT
16:30 84.9 °F 68.0 °F 30.06 in Calm   7.0 mph 57% 0.00 in SCT
16:45 85.3 °F 67.8 °F 30.06 in Calm   2.0 mph 56% 0.00 in SCT
17:00 84.8 °F 67.4 °F 30.05 in Calm   2.0 mph 56% 0.00 in SCT
17:15 83.6 °F 68.2 °F 30.05 in Calm   2.0 mph 60% 0.00 in SCT
17:30 84.1 °F 68.2 °F 30.04 in Calm   2.0 mph 59% 0.00 in SCT
17:45 83.8 °F 67.9 °F 30.04 in Calm   2.0 mph 59% 0.00 in SCT
18:00 83.8 °F 66.9 °F 30.03 in Calm   2.0 mph 57% 0.00 in SCT
18:15 83.4 °F 67.1 °F 30.03 in Calm   2.0 mph 58% 0.00 in SCT
18:30 83.2 °F 66.4 °F 30.03 in Calm   2.0 mph 57% 0.00 in SCT
18:45 83.2 °F 66.4 °F 30.03 in Calm   2.0 mph 57% 0.00 in SCT
19:00 82.9 °F 65.6 °F 30.03 in Calm   2.0 mph 56% 0.00 in SCT
19:15 82.3 °F 65.6 °F 30.04 in Calm   1.0 mph 57% 0.00 in SCT
19:30 82.0 °F 65.3 °F 30.04 in Calm   2.0 mph 57% 0.00 in SCT
20:00 81.3 °F 65.1 °F 30.05 in Calm   7.0 mph 58% 0.00 in SCT
20:15 80.8 °F 65.2 °F 30.05 in Calm   1.0 mph 59% 0.00 in SCT
20:30 80.2 °F 65.5 °F 30.06 in Calm     61% 0.00 in SCT
20:45 79.6 °F 65.9 °F 30.06 in Calm     63% 0.00 in SCT
21:00 78.9 °F 66.6 °F 30.06 in Calm     66% 0.00 in SCT
21:15 78.5 °F 67.1 °F 30.07 in Calm     68% 0.00 in SCT
21:30 78.1 °F 67.1 °F 30.07 in Calm     69% 0.00 in SCT
21:45 77.8 °F 67.2 °F 30.07 in Calm     70% 0.00 in SCT
22:00 77.7 °F 67.5 °F 30.07 in Calm     71% 0.00 in SCT
22:15 77.5 °F 67.3 °F 30.08 in Calm     71% 0.00 in SCT
22:30 76.8 °F 67.5 °F 30.08 in Calm     73% 0.00 in SCT
22:45 76.3 °F 67.4 °F 30.08 in Calm     74% 0.00 in SCT
23:00 75.8 °F 67.3 °F 30.08 in Calm     75% 0.00 in SCT
23:15 75.2 °F 67.1 °F 30.08 in Calm     76% 0.00 in SCT
23:30 74.7 °F 67.0 °F 30.08 in Calm     77% 0.00 in SCT
23:45 74.3 °F 66.6 °F 30.08 in Calm     77% 0.00 in SCT
Piedmont Bend
Compliments of Weather Underground - 4 mb